Time;durP1;ratioP1;P1;durP2;ratioP2;P2;SDS_P1;SDS_P2;PMS_P1;PMS_P2;Temp;Humidity;BMP_temperature;BMP_pressure;BME280_temperature;BME280_humidity;BME280_pressure;Samples;Min_cycle;Max_cycle;Signal;HPM_P1;HPM_P2
2022/08/03 00:02:21;;;;;;;;;;;;;;;-142.75;100.00;75952.25;5055324;28;19966;-64
2022/08/03 00:04:47;;;;;;;;;;;;;;;-142.75;100.00;75952.25;5055480;28;19920;-64
2022/08/03 00:07:12;;;;;;;;;;;;;;;-142.75;100.00;75952.25;5055024;28;20283;-64
2022/08/03 00:09:37;;;;;;;;;;;;;;;-142.75;100.00;75960.13;5055256;28;20361;-64
2022/08/03 00:12:02;;;;;;;;;;;;;;;-142.75;100.00;75952.25;5053263;28;19923;-65
2022/08/03 00:14:28;;;;;;;;;;;;;;;-142.75;100.00;75960.13;5055099;28;19913;-64
2022/08/03 00:16:53;;;;;;;;;;;;;;;-142.75;100.00;75966.00;5054826;28;19963;-64
2022/08/03 00:19:18;;;;;;;;;;;;;;;-142.75;100.00;75973.88;5055080;28;20001;-64
2022/08/03 00:21:43;;;;;;;;;;;;;;;-142.75;100.00;75979.78;5037131;28;20294;-64
2022/08/03 00:24:08;;;;;;;;;;;;;;;-142.75;100.00;76009.31;5054981;28;19920;-64
2022/08/03 00:26:34;;;;;;;;;;;;;;;-142.75;100.00;75997.50;5054556;28;19912;-64
2022/08/03 00:28:59;;;;;;;;;;;;;;;-142.75;100.00;75979.78;5054796;28;20012;-65
2022/08/03 00:31:24;;;;;;;;;;;;;;;-142.75;100.00;75991.59;5036977;28;19974;-64
2022/08/03 00:33:49;;;;;;;;;;;;;;;-142.75;100.00;75979.78;5054836;28;19913;-64
2022/08/03 00:36:14;;;;;;;;;;;;;;;-142.75;100.00;75987.66;5054668;28;19956;-65
2022/08/03 00:38:40;;;;;;;;;;;;;;;-142.75;100.00;75991.59;5054421;28;19913;-63
2022/08/03 00:41:05;;;;;;;;;;;;;;;-142.75;100.00;76013.25;5054545;28;19962;-63
2022/08/03 00:43:30;;;;;;;;;;;;;;;-142.75;100.00;76011.28;5054193;28;19919;-62
2022/08/03 00:45:55;;;;;;;;;;;;;;;-142.75;100.00;76011.28;5054615;28;19913;-62
2022/08/03 00:48:21;;;;;;;;;;;;;;;-142.75;100.00;76007.34;5054164;28;20015;-62
2022/08/03 00:50:47;;;;;;;;;;;;;;;-142.75;100.00;76027.03;5054572;28;19912;-63
2022/08/03 00:53:12;;;;;;;;;;;;;;;-142.75;100.00;76003.41;5054276;28;20488;-62
2022/08/03 00:55:38;;;;;;;;;;;;;;;-142.75;100.00;76015.22;5054321;28;19917;-63
2022/08/03 00:58:06;;;;;;;;;;;;;;;-142.75;100.00;76005.38;5054051;28;19936;-63
2022/08/03 01:00:35;;;;;;;;;;;;;;;-142.75;100.00;75967.97;5054330;28;19913;-65
2022/08/03 01:03:00;;;;;;;;;;;;;;;-142.75;100.00;75977.81;5054226;28;19919;-64
2022/08/03 01:05:26;;;;;;;;;;;;;;;-142.75;100.00;75969.94;5054275;28;19917;-65
2022/08/03 01:08:10;;;;;;;;;;;;;;;-142.75;100.00;75977.81;5036061;28;19917;-64
2022/08/03 01:10:44;;;;;;;;;;;;;;;-142.75;100.00;75987.66;5054147;28;19971;-64
2022/08/03 01:13:12;;;;;;;;;;;;;;;-142.75;100.00;75975.84;5037169;28;19933;-64
2022/08/03 01:15:43;;;;;;;;;;;;;;;-142.75;100.00;75983.72;5034103;28;19913;-65
2022/08/03 01:18:17;;;;;;;;;;;;;;;-142.75;100.00;75977.81;5033802;28;20321;-64
2022/08/03 01:20:44;;;;;;;;;;;;;;;-142.75;100.00;75975.84;5033968;28;19955;-64
2022/08/03 01:23:17;;;;;;;;;;;;;;;-142.75;100.00;75969.94;5033932;28;20011;-64
2022/08/03 01:25:51;;;;;;;;;;;;;;;-142.75;100.00;75956.19;5034010;28;19913;-64
2022/08/03 01:28:19;;;;;;;;;;;;;;;-142.75;100.00;75964.03;5033446;28;19928;-64
2022/08/03 01:30:45;;;;;;;;;;;;;;;-142.75;100.00;75981.75;5033888;28;19913;-64
2022/08/03 01:33:19;;;;;;;;;;;;;;;-142.75;100.00;75981.75;5033649;28;19935;-64
2022/08/03 01:35:47;;;;;;;;;;;;;;;-142.75;100.00;75964.03;5033751;28;20534;-64
2022/08/03 01:38:16;;;;;;;;;;;;;;;-142.75;100.00;75979.78;5033388;28;19913;-64
2022/08/03 01:40:43;;;;;;;;;;;;;;;-142.75;100.00;75973.88;5033627;28;20442;-64
2022/08/03 01:43:11;;;;;;;;;;;;;;;-142.75;100.00;75999.47;5033485;28;19917;-64
2022/08/03 01:45:37;;;;;;;;;;;;;;;-142.75;100.00;76009.31;5033443;28;19956;-64
2022/08/03 01:48:03;;;;;;;;;;;;;;;-142.75;100.00;76011.28;5033117;28;19921;-64
2022/08/03 01:50:30;;;;;;;;;;;;;;;-142.75;100.00;76023.09;5033638;28;19941;-64
2022/08/03 01:52:56;;;;;;;;;;;;;;;-142.75;100.00;76034.91;5033231;28;19925;-64
2022/08/03 01:55:22;;;;;;;;;;;;;;;-142.75;100.00;76036.88;5032637;28;19913;-64
2022/08/03 01:57:49;;;;;;;;;;;;;;;-142.75;100.00;76034.91;5032963;28;19928;-64
2022/08/03 02:00:14;;;;;;;;;;;;;;;-142.75;100.00;76038.84;5033208;28;20047;-62
2022/08/03 02:02:41;;;;;;;;;;;;;;;-142.75;100.00;76027.03;5033173;28;19952;-62
2022/08/03 02:05:07;;;;;;;;;;;;;;;-142.75;100.00;76034.91;5033160;28;19913;-62
2022/08/03 02:07:33;;;;;;;;;;;;;;;-142.75;100.00;76023.09;5032837;28;19925;-62
2022/08/03 02:09:59;;;;;;;;;;;;;;;-142.75;100.00;75983.72;5033107;28;19913;-63
2022/08/03 02:12:25;;;;;;;;;;;;;;;-142.75;100.00;76042.78;5033185;28;20362;-62
2022/08/03 02:14:52;;;;;;;;;;;;;;;-142.75;100.00;76030.97;5032954;28;19920;-62
2022/08/03 02:17:18;;;;;;;;;;;;;;;-142.75;100.00;76009.31;5032787;28;19917;-62
2022/08/03 02:19:44;;;;;;;;;;;;;;;-142.75;100.00;76015.22;5033024;28;19913;-62
2022/08/03 02:22:10;;;;;;;;;;;;;;;-142.75;100.00;76048.69;5033107;28;19946;-62
2022/08/03 02:24:35;;;;;;;;;;;;;;;-142.75;100.00;76030.97;5032946;28;19924;-62
2022/08/03 02:27:03;;;;;;;;;;;;;;;-142.75;100.00;76034.91;5032417;28;19913;-62
2022/08/03 02:29:29;;;;;;;;;;;;;;;-142.75;100.00;76021.13;5032742;28;19913;-62
2022/08/03 02:31:56;;;;;;;;;;;;;;;-142.75;100.00;76027.03;5032831;28;19920;-63
2022/08/03 02:34:24;;;;;;;;;;;;;;;-142.75;100.00;76019.16;5014961;28;20401;-64
2022/08/03 02:36:50;;;;;;;;;;;;;;;-142.75;100.00;76003.41;5032256;28;19919;-64
2022/08/03 02:39:16;;;;;;;;;;;;;;;-142.75;100.00;75993.56;5015043;28;20003;-65
2022/08/03 02:41:44;;;;;;;;;;;;;;;-142.75;100.00;76015.22;5032452;28;19991;-65
2022/08/03 02:44:10;;;;;;;;;;;;;;;-142.75;100.00;76025.06;5032471;28;19913;-65
2022/08/03 02:46:41;;;;;;;;;;;;;;;-142.75;100.00;75999.47;5032248;28;20402;-64
2022/08/03 02:49:07;;;;;;;;;;;;;;;-142.75;100.00;76011.28;5032361;28;20394;-64
2022/08/03 02:51:35;;;;;;;;;;;;;;;-142.75;100.00;76019.16;5032249;28;20008;-63
2022/08/03 02:54:05;;;;;;;;;;;;;;;-142.75;100.00;76003.41;5032441;28;20366;-64
2022/08/03 02:56:31;;;;;;;;;;;;;;;-142.75;100.00;76017.19;5032144;28;19913;-65
2022/08/03 02:58:57;;;;;;;;;;;;;;;-142.75;100.00;76013.25;5032286;28;20374;-65
2022/08/03 03:01:23;;;;;;;;;;;;;;;-142.75;100.00;76017.19;5032291;28;19920;-65
2022/08/03 03:03:50;;;;;;;;;;;;;;;-142.75;100.00;76011.28;5031738;28;20311;-64
2022/08/03 03:06:17;;;;;;;;;;;;;;;-142.75;100.00;76013.25;5032191;28;20425;-64
2022/08/03 03:08:43;;;;;;;;;;;;;;;-142.75;100.00;76007.34;5031919;28;19918;-64
2022/08/03 03:11:09;;;;;;;;;;;;;;;-142.75;100.00;76029.00;5031987;28;19917;-65
2022/08/03 03:13:35;;;;;;;;;;;;;;;-142.75;100.00;76056.56;5032198;28;20004;-62
2022/08/03 03:16:01;;;;;;;;;;;;;;;-142.75;100.00;76078.19;5032175;28;19952;-62
2022/08/03 03:18:27;;;;;;;;;;;;;;;-142.75;100.00;76064.44;5014161;28;19914;-62
2022/08/03 03:20:53;;;;;;;;;;;;;;;-142.75;100.00;76058.53;5032139;28;19913;-62
2022/08/03 03:23:20;;;;;;;;;;;;;;;-142.75;100.00;76068.38;5032067;28;19958;-65
2022/08/03 03:25:45;;;;;;;;;;;;;;;-142.75;100.00;76058.53;5031961;28;19974;-64
2022/08/03 03:28:10;;;;;;;;;;;;;;;-142.75;100.00;76056.56;5031706;28;20638;-64
2022/08/03 03:30:36;;;;;;;;;;;;;;;-142.75;100.00;76062.47;5032052;28;19943;-64
2022/08/03 03:33:01;;;;;;;;;;;;;;;-142.75;100.00;76058.53;5031966;28;19995;-64
2022/08/03 03:35:27;;;;;;;;;;;;;;;-142.75;100.00;76066.41;5032011;28;19920;-64
2022/08/03 03:37:52;;;;;;;;;;;;;;;-142.75;100.00;76074.25;5013940;28;20385;-64
2022/08/03 03:40:18;;;;;;;;;;;;;;;-142.75;100.00;76066.41;5031860;28;20385;-64
2022/08/03 03:42:43;;;;;;;;;;;;;;;-142.75;100.00;76058.53;5031871;28;20286;-64
2022/08/03 03:45:09;;;;;;;;;;;;;;;-142.75;100.00;76062.47;5031910;28;20334;-64
2022/08/03 03:47:34;;;;;;;;;;;;;;;-142.75;100.00;76076.22;5031463;28;20302;-64
2022/08/03 03:50:00;;;;;;;;;;;;;;;-142.75;100.00;76070.34;5031889;28;19936;-64
2022/08/03 03:52:25;;;;;;;;;;;;;;;-142.75;100.00;76082.13;5031649;28;19921;-64
2022/08/03 03:54:51;;;;;;;;;;;;;;;-142.75;100.00;76060.50;5031670;28;19967;-64
2022/08/03 03:57:16;;;;;;;;;;;;;;;-142.75;100.00;76068.38;5031520;28;19935;-64
2022/08/03 03:59:41;;;;;;;;;;;;;;;-142.75;100.00;76070.34;5031750;28;19913;-64
2022/08/03 04:02:07;;;;;;;;;;;;;;;-142.75;100.00;76076.22;5031696;28;19913;-64
2022/08/03 04:12:47;;;;;;;;;;;;;;;-142.75;100.00;76068.38;5031618;28;19924;-64
2022/08/03 04:15:13;;;;;;;;;;;;;;;-142.75;100.00;76068.38;5031631;28;19914;-64
2022/08/03 04:17:39;;;;;;;;;;;;;;;-142.75;100.00;76066.41;5031825;28;20382;-64
2022/08/03 04:20:05;;;;;;;;;;;;;;;-142.75;100.00;76066.41;5035131;28;19920;-62
2022/08/03 04:22:31;;;;;;;;;;;;;;;-142.75;100.00;76072.31;5035059;28;19913;-62
2022/08/03 04:25:01;;;;;;;;;;;;;;;-142.75;100.00;76070.34;5035207;28;20411;-62
2022/08/03 04:27:30;;;;;;;;;;;;;;;-142.75;100.00;76072.31;5034830;28;19924;-63
2022/08/03 04:29:56;;;;;;;;;;;;;;;-142.75;100.00;76066.41;5035024;28;20283;-62
2022/08/03 04:32:24;;;;;;;;;;;;;;;-142.75;100.00;76105.75;5034808;28;19913;-63
2022/08/03 04:34:49;;;;;;;;;;;;;;;-142.75;100.00;76076.22;5017160;28;19967;-64
2022/08/03 04:37:21;;;;;;;;;;;;;;;-142.75;100.00;76074.25;5034528;28;20313;-62
2022/08/03 04:39:48;;;;;;;;;;;;;;;-142.75;100.00;76076.22;5034830;28;19960;-62
2022/08/03 04:42:14;;;;;;;;;;;;;;;-142.75;100.00;76095.91;5034728;28;19913;-62
2022/08/03 04:44:41;;;;;;;;;;;;;;;-142.75;100.00;76091.97;5034739;28;19924;-62
2022/08/03 04:47:07;;;;;;;;;;;;;;;-142.75;100.00;76074.25;5034164;28;19917;-63
2022/08/03 04:49:34;;;;;;;;;;;;;;;-142.75;100.00;76088.03;5034662;28;19913;-62
2022/08/03 04:51:59;;;;;;;;;;;;;;;-142.75;100.00;76078.19;5034391;28;19917;-62
2022/08/03 04:54:25;;;;;;;;;;;;;;;-142.75;100.00;76080.16;5034526;28;19919;-62
2022/08/03 04:56:50;;;;;;;;;;;;;;;-142.75;100.00;76097.88;5034207;28;19920;-64
2022/08/03 04:59:16;;;;;;;;;;;;;;;-142.75;100.00;76093.94;5034489;28;19917;-65
2022/08/03 05:01:42;;;;;;;;;;;;;;;-142.75;100.00;76090.00;5034324;28;20352;-62
2022/08/03 05:04:07;;;;;;;;;;;;;;;-142.75;100.00;76113.63;5034384;28;19913;-62
2022/08/03 05:06:32;;;;;;;;;;;;;;;-142.75;100.00;76101.81;5033980;28;20293;-62
2022/08/03 05:08:57;;;;;;;;;;;;;;;-142.75;100.00;76091.97;5041509;28;19920;-62
2022/08/03 05:11:22;;;;;;;;;;;;;;;-142.75;100.00;76074.25;5053561;28;20003;-62
2022/08/03 05:13:48;;;;;;;;;;;;;;;-142.75;100.00;76076.22;5035666;28;19921;-62
2022/08/03 05:16:13;;;;;;;;;;;;;;;-142.75;100.00;76058.53;5052648;28;19917;-62
2022/08/03 05:18:39;;;;;;;;;;;;;;;-142.75;100.00;76060.50;5052841;28;19952;-62
2022/08/03 05:21:05;;;;;;;;;;;;;;;-142.75;100.00;76066.41;5050278;28;19970;-61
2022/08/03 05:23:30;;;;;;;;;;;;;;;-142.75;100.00;76030.97;5051607;28;20313;-62
2022/08/03 05:25:55;;;;;;;;;;;;;;;-142.75;100.00;76015.22;5053904;28;20427;-62
2022/08/03 05:28:20;;;;;;;;;;;;;;;-142.75;100.00;75999.47;5053505;28;19940;-62
2022/08/03 05:30:45;;;;;;;;;;;;;;;-142.75;100.00;75989.63;5052576;28;20006;-62
2022/08/03 05:33:11;;;;;;;;;;;;;;;-142.75;100.00;75975.84;5053697;28;20019;-62
2022/08/03 05:35:37;;;;;;;;;;;;;;;-142.75;100.00;76013.25;5053649;28;19913;-62
2022/08/03 05:38:03;;;;;;;;;;;;;;;-142.75;100.00;75999.47;5053355;28;19913;-62
2022/08/03 05:40:29;;;;;;;;;;;;;;;-142.75;100.00;76021.13;5053599;28;20425;-63
2022/08/03 05:42:54;;;;;;;;;;;;;;;-142.75;100.00;76019.16;5053612;28;19913;-62
2022/08/03 05:45:19;;;;;;;;;;;;;;;-142.75;100.00;76019.16;5053534;28;19913;-63
2022/08/03 05:47:44;;;;;;;;;;;;;;;-142.75;100.00;75983.72;5053093;28;20374;-63
2022/08/03 05:50:10;;;;;;;;;;;;;;;-142.75;100.00;75989.63;5053484;28;19913;-62
2022/08/03 05:52:36;;;;;;;;;;;;;;;-142.75;100.00;75987.66;5066405;22;20298;-64
2022/08/03 05:55:01;;;;;;;;;;;;;;;-142.75;100.00;75940.44;5031802;28;20008;-66
2022/08/03 05:57:26;;;;;;;;;;;;;;;-142.75;100.00;75991.59;5014747;28;19913;-66
2022/08/03 05:59:51;;;;;;;;;;;;;;;-142.75;100.00;75981.75;5031944;28;19956;-66
2022/08/03 06:02:17;;;;;;;;;;;;;;;-142.75;100.00;75979.78;5033175;28;19920;-66
2022/08/03 06:04:42;;;;;;;;;;;;;;;-142.75;100.00;75926.66;5033186;28;19970;-66
2022/08/03 06:07:07;;;;;;;;;;;;;;;-142.75;100.00;75942.41;5032739;28;19920;-66
2022/08/03 06:09:33;;;;;;;;;;;;;;;-142.75;100.00;75922.72;5033097;28;19924;-66
2022/08/03 06:11:58;;;;;;;;;;;;;;;-142.75;100.00;75924.69;5032972;28;19920;-68
2022/08/03 06:14:23;;;;;;;;;;;;;;;-142.75;100.00;75924.69;5015274;28;20000;-67
2022/08/03 06:16:48;;;;;;;;;;;;;;;-142.75;100.00;75908.94;5032598;28;19913;-66
2022/08/03 06:19:13;;;;;;;;;;;;;;;-142.75;100.00;75871.53;5032989;28;19920;-67
2022/08/03 06:21:39;;;;;;;;;;;;;;;-142.75;100.00;75853.84;5032788;28;19936;-67
2022/08/03 06:24:04;;;;;;;;;;;;;;;-142.75;100.00;75873.50;5032913;28;19919;-66
2022/08/03 06:26:31;;;;;;;;;;;;;;;-142.75;100.00;75847.94;5032721;28;19920;-66
2022/08/03 06:28:56;;;;;;;;;;;;;;;-142.75;100.00;75820.38;5032662;28;20310;-66
2022/08/03 06:31:24;;;;;;;;;;;;;;;-142.75;100.00;75816.44;5031486;28;19914;-66
2022/08/03 06:33:49;;;;;;;;;;;;;;;-142.75;100.00;75830.22;5031733;28;19917;-66
2022/08/03 06:36:15;;;;;;;;;;;;;;;-142.75;100.00;75842.03;5031651;28;19919;-66
2022/08/03 06:38:40;;;;;;;;;;;;;;;-142.75;100.00;75810.53;5031469;28;19918;-67
2022/08/03 06:41:05;;;;;;;;;;;;;;;-142.75;100.00;75838.09;5031452;28;19999;-66
2022/08/03 06:43:34;;;;;;;;;;;;;;;-142.75;100.00;75810.53;5013766;28;20329;-66
2022/08/03 06:45:59;;;;;;;;;;;;;;;-142.75;100.00;75798.72;5031258;28;20291;-66
2022/08/03 06:48:24;;;;;;;;;;;;;;;-142.75;100.00;75753.47;5031494;28;19925;-66
2022/08/03 06:50:49;;;;;;;;;;;;;;;-142.75;100.00;75727.88;5031481;28;19913;-66
2022/08/03 06:53:15;;;;;;;;;;;;;;;-142.75;100.00;75749.53;5031277;28;19917;-66
2022/08/03 06:55:40;;;;;;;;;;;;;;;-142.75;100.00;75723.94;5031595;28;19940;-66
2022/08/03 06:58:05;;;;;;;;;;;;;;;-142.75;100.00;75684.56;5031120;28;19913;-66
2022/08/03 07:00:30;;;;;;;;;;;;;;;-142.75;100.00;75657.03;5031222;28;20011;-66
2022/08/03 07:02:56;;;;;;;;;;;;;;;-142.75;100.00;75613.72;5031267;28;19920;-66
2022/08/03 07:05:21;;;;;;;;;;;;;;;-142.75;100.00;75586.19;5031344;28;19917;-66
2022/08/03 07:07:47;;;;;;;;;;;;;;;-142.75;100.00;75562.56;5031014;28;19963;-65
2022/08/03 07:10:12;;;;;;;;;;;;;;;-142.75;100.00;75533.03;5031359;28;20215;-66
2022/08/03 07:12:37;;;;;;;;;;;;;;;-142.75;100.00;75558.63;5031218;28;19913;-66
2022/08/03 07:15:03;;;;;;;;;;;;;;;-142.75;100.00;75558.63;5031143;28;19999;-66
2022/08/03 07:17:29;;;;;;;;;;;;;;;-142.75;100.00;75613.72;5030920;28;19913;-66
2022/08/03 07:19:54;;;;;;;;;;;;;;;-142.75;100.00;75601.91;5031105;28;20413;-66
2022/08/03 07:22:19;;;;;;;;;;;;;;;-142.75;100.00;75582.25;5031215;28;19913;-66
2022/08/03 07:24:46;;;;;;;;;;;;;;;-142.75;100.00;75580.28;5031488;28;20321;-66
2022/08/03 07:27:11;;;;;;;;;;;;;;;-142.75;100.00;75584.22;5030871;28;19917;-66
2022/08/03 07:29:36;;;;;;;;;;;;;;;-142.75;100.00;75586.19;5030686;28;19913;-66
2022/08/03 07:32:03;;;;;;;;;;;;;;;-142.75;100.00;75609.78;5031068;28;19941;-66
2022/08/03 07:34:28;;;;;;;;;;;;;;;-142.75;100.00;75538.94;5031321;28;19919;-66
2022/08/03 07:36:53;;;;;;;;;;;;;;;-142.75;100.00;75535.00;5031684;28;20015;-66
2022/08/03 07:39:19;;;;;;;;;;;;;;;-142.75;100.00;75607.81;5030896;28;19913;-65
2022/08/03 07:41:44;;;;;;;;;;;;;;;-142.75;100.00;75499.59;5014236;28;19917;-68
2022/08/03 07:44:10;;;;;;;;;;;;;;;-142.75;100.00;75450.38;5031926;28;20374;-66
2022/08/03 07:46:35;;;;;;;;;;;;;;;-142.75;100.00;75409.06;5031592;28;19917;-66
2022/08/03 07:49:00;;;;;;;;;;;;;;;-142.75;100.00;75359.88;5031762;28;19921;-65
2022/08/03 07:51:25;;;;;;;;;;;;;;;-142.75;100.00;75350.03;5031875;28;19913;-66
2022/08/03 07:53:51;;;;;;;;;;;;;;;-142.75;100.00;75342.16;5034112;28;19917;-66
2022/08/03 07:56:16;;;;;;;;;;;;;;;-142.75;100.00;75291.00;5035735;28;20363;-66
2022/08/03 07:58:41;;;;;;;;;;;;;;;-142.75;100.00;75322.47;5017464;28;19913;-66
2022/08/03 08:01:06;;;;;;;;;;;;;;;-142.75;100.00;75314.59;5035497;28;19913;-67
2022/08/03 08:03:31;;;;;;;;;;;;;;;-142.75;100.00;75281.16;5035373;28;19999;-66
2022/08/03 08:05:57;;;;;;;;;;;;;;;-142.75;100.00;75306.72;5035467;28;19913;-66
2022/08/03 08:08:22;;;;;;;;;;;;;;;-142.75;100.00;75263.44;5035041;28;19929;-67
2022/08/03 08:10:47;;;;;;;;;;;;;;;-142.75;100.00;75285.09;5017558;28;19914;-66
2022/08/03 08:13:12;;;;;;;;;;;;;;;-142.75;100.00;75279.19;5035226;28;20314;-66
2022/08/03 08:15:37;;;;;;;;;;;;;;;-142.75;100.00;75251.63;5035200;28;19921;-65
2022/08/03 08:18:03;;;;;;;;;;;;;;;-142.75;100.00;75208.34;5034896;28;19963;-66
2022/08/03 08:20:29;;;;;;;;;;;;;;;-142.75;100.00;75200.47;5035214;28;20011;-67
2022/08/03 08:22:56;;;;;;;;;;;;;;;-142.75;100.00;75216.22;5035097;28;20174;-67
2022/08/03 08:25:22;;;;;;;;;;;;;;;-142.75;100.00;75208.34;5035192;28;20013;-67
2022/08/03 08:27:48;;;;;;;;;;;;;;;-142.75;100.00;75228.00;5034649;28;20007;-67
2022/08/03 08:30:14;;;;;;;;;;;;;;;-142.75;100.00;75233.91;5017169;28;20386;-67
2022/08/03 08:32:40;;;;;;;;;;;;;;;-142.75;100.00;75212.28;5017114;28;20397;-67
2022/08/03 08:35:05;;;;;;;;;;;;;;;-142.75;100.00;75125.69;5034916;28;19913;-66
2022/08/03 08:37:31;;;;;;;;;;;;;;;-142.75;100.00;75129.63;5034635;28;19913;-68
2022/08/03 08:39:56;;;;;;;;;;;;;;;-142.75;100.00;75109.94;5017078;28;19920;-67
2022/08/03 08:42:22;;;;;;;;;;;;;;;-142.75;100.00;75198.50;5034718;28;19920;-66
2022/08/03 08:44:47;;;;;;;;;;;;;;;-142.75;100.00;75161.13;5034694;28;20290;-67
2022/08/03 08:47:13;;;;;;;;;;;;;;;-142.75;100.00;75137.50;5034340;28;19917;-67
2022/08/03 08:49:39;;;;;;;;;;;;;;;-142.75;100.00;75094.22;5034716;28;19917;-67
2022/08/03 08:52:06;;;;;;;;;;;;;;;-142.75;100.00;75161.13;5034450;28;19924;-67
2022/08/03 08:54:32;;;;;;;;;;;;;;;-142.75;100.00;75184.72;5034555;28;20054;-67
2022/08/03 08:56:59;;;;;;;;;;;;;;;-142.75;100.00;75121.75;5034200;28;19948;-67
2022/08/03 08:59:25;;;;;;;;;;;;;;;-142.75;100.00;75107.97;5034473;28;19913;-66
2022/08/03 09:01:55;;;;;;;;;;;;;;;-142.75;100.00;75106.00;5032808;28;19921;-67
2022/08/03 09:04:20;;;;;;;;;;;;;;;-142.75;100.00;75041.09;5034184;28;19960;-66
2022/08/03 09:06:46;;;;;;;;;;;;;;;-142.75;100.00;75013.53;5016231;28;20010;-66
2022/08/03 09:09:11;;;;;;;;;;;;;;;-142.75;100.00;74962.38;5034191;28;19917;-67
2022/08/03 09:11:36;;;;;;;;;;;;;;;-142.75;100.00;74954.50;5034135;28;19917;-66
2022/08/03 09:14:01;;;;;;;;;;;;;;;-142.75;100.00;75009.59;5016421;28;20379;-67
2022/08/03 09:16:26;;;;;;;;;;;;;;;-142.75;100.00;74946.63;5033989;28;19959;-67
2022/08/03 09:18:53;;;;;;;;;;;;;;;-142.75;96.89;74913.19;5033937;28;19920;-66
2022/08/03 09:21:18;;;;;;;;;;;;;;;-142.75;98.38;74917.13;5034136;28;19913;-67
2022/08/03 09:23:45;;;;;;;;;;;;;;;-142.75;96.66;74885.63;5033986;28;19920;-67
2022/08/03 09:26:10;;;;;;;;;;;;;;;-142.75;95.43;74887.59;5033844;28;19919;-67
2022/08/03 09:28:35;;;;;;;;;;;;;;;-142.75;92.20;74862.03;5033496;28;20023;-67
2022/08/03 09:31:00;;;;;;;;;;;;;;;-142.75;92.75;74858.09;5015917;28;20379;-67
2022/08/03 09:33:25;;;;;;;;;;;;;;;-142.75;92.70;74816.75;5015791;28;19920;-67
2022/08/03 09:35:51;;;;;;;;;;;;;;;-142.75;89.87;74814.78;5032916;28;19920;-68
2022/08/03 09:38:16;;;;;;;;;;;;;;;-142.75;87.31;74814.78;5030019;28;19917;-68
2022/08/03 09:40:41;;;;;;;;;;;;;;;-142.75;88.74;74818.72;5033401;28;19913;-67
2022/08/03 09:43:07;;;;;;;;;;;;;;;-142.75;85.92;74875.78;5033152;28;19913;-67
2022/08/03 09:45:33;;;;;;;;;;;;;;;-142.75;88.39;74834.47;5033388;28;19917;-68
2022/08/03 09:48:18;;;;;;;;;;;;;;;-142.75;81.60;74810.88;5045174;28;19920;-67
2022/08/03 09:50:48;;;;;;;;;;;;;;;-142.75;82.70;74781.34;5053172;28;19924;-67
2022/08/03 09:53:13;;;;;;;;;;;;;;;-142.75;86.82;74844.31;5052971;28;19920;-67
2022/08/03 09:55:48;;;;;;;;;;;;;;;-142.75;82.80;74783.31;5053189;28;20405;-67
2022/08/03 09:58:14;;;;;;;;;;;;;;;-142.75;83.05;74785.28;5052672;28;19916;-66
2022/08/03 10:00:53;;;;;;;;;;;;;;;-142.75;80.25;74736.09;5052818;28;20047;-66
2022/08/03 10:03:18;;;;;;;;;;;;;;;-142.75;77.30;74757.75;5052958;28;19920;-68
2022/08/03 10:05:44;;;;;;;;;;;;;;;-142.75;76.65;74700.69;5053055;28;20357;-67
2022/08/03 10:08:18;;;;;;;;;;;;;;;-142.75;75.42;74708.53;5034647;28;19966;-67
2022/08/03 10:10:45;;;;;;;;;;;;;;;-142.75;73.88;74724.28;5052948;28;19920;-65
2022/08/03 10:13:12;;;;;;;;;;;;;;;-142.75;74.95;74704.63;5052842;28;19919;-67
2022/08/03 10:15:38;;;;;;;;;;;;;;;-142.75;76.37;74671.16;5052218;28;19913;-68
2022/08/03 10:18:03;;;;;;;;;;;;;;;-142.75;73.21;74659.34;5036400;28;20003;-67
2022/08/03 10:20:29;;;;;;;;;;;;;;;-142.75;72.45;74679.03;5031577;28;20016;-66
2022/08/03 10:22:54;;;;;;;;;;;;;;;-142.75;74.22;74688.88;5031485;28;19917;-66
2022/08/03 10:25:20;;;;;;;;;;;;;;;-142.75;75.27;74659.34;5031519;28;20370;-64
2022/08/03 10:27:46;;;;;;;;;;;;;;;-142.75;74.63;74677.06;5031158;28;19924;-65
2022/08/03 10:30:12;;;;;;;;;;;;;;;-142.75;71.62;74653.47;5031456;28;19917;-65
2022/08/03 10:32:52;;;;;;;;;;;;;;;-142.75;73.23;74653.47;5031311;28;20003;-66
2022/08/03 10:35:19;;;;;;;;;;;;;;;-142.75;69.78;74604.28;5031315;28;19913;-65
2022/08/03 10:37:48;;;;;;;;;;;;;;;-142.75;69.23;74665.25;5031063;28;19955;-65
2022/08/03 10:40:14;;;;;;;;;;;;;;;-142.75;71.37;74621.97;5013650;28;19963;-64
2022/08/03 10:42:41;;;;;;;;;;;;;;;-142.75;70.02;74590.50;5031164;28;19914;-66
2022/08/03 10:45:08;;;;;;;;;;;;;;;-142.75;70.61;74590.50;5031090;28;20378;-66
2022/08/03 10:47:34;;;;;;;;;;;;;;;-142.75;69.81;74578.69;5030622;28;20133;-67
2022/08/03 10:50:00;;;;;;;;;;;;;;;-142.75;69.07;74578.69;5013272;28;20417;-66
2022/08/03 10:52:25;;;;;;;;;;;;;;;-142.75;66.58;74559.00;5030941;28;20006;-65
2022/08/03 10:57:53;;;;;;;;;;;;;;;-142.75;68.12;74559.00;5030651;28;19970;-66
2022/08/03 11:00:18;;;;;;;;;;;;;;;-142.75;68.24;74537.38;5030523;28;19928;-67
2022/08/03 11:03:01;;;;;;;;;;;;;;;-142.75;67.47;74517.69;5031962;28;20283;-67
2022/08/03 11:05:28;;;;;;;;;;;;;;;-142.75;66.19;74633.78;5032259;28;19967;-67
2022/08/03 11:08:12;;;;;;;;;;;;;;;-142.75;69.72;74576.72;5031813;28;19921;-68
2022/08/03 11:10:37;;;;;;;;;;;;;;;-142.75;67.07;74574.75;5032133;28;19919;-67
2022/08/03 11:13:06;;;;;;;;;;;;;;;-142.75;66.30;74582.63;5032114;28;19917;-67
2022/08/03 11:15:33;;;;;;;;;;;;;;;-142.75;67.00;74531.47;5032164;28;19913;-66
2022/08/03 11:18:07;;;;;;;;;;;;;;;-142.75;66.33;74543.28;5031883;28;19917;-67
2022/08/03 11:20:49;;;;;;;;;;;;;;;-142.75;68.58;74543.28;5032156;28;19913;-67
2022/08/03 11:23:15;;;;;;;;;;;;;;;-142.75;66.17;74529.50;5032002;28;20020;-67
2022/08/03 11:25:59;;;;;;;;;;;;;;;-142.75;66.27;74559.00;5031953;28;19913;-68
2022/08/03 11:28:27;;;;;;;;;;;;;;;-142.75;65.83;74484.25;5035236;28;19929;-67
2022/08/03 11:30:52;;;;;;;;;;;;;;;-142.75;64.91;74527.53;5036106;28;19913;-67
2022/08/03 11:33:30;;;;;;;;;;;;;;;-142.75;69.24;74496.06;5035898;28;19921;-67
2022/08/03 11:35:59;;;;;;;;;;;;;;;-142.75;65.58;74513.75;5018232;28;20283;-67
2022/08/03 11:38:25;;;;;;;;;;;;;;;-142.75;65.91;74513.75;5017859;28;19920;-67
2022/08/03 11:40:51;;;;;;;;;;;;;;;-142.75;68.92;74529.50;5018161;28;20283;-67
2022/08/03 11:43:29;;;;;;;;;;;;;;;-142.75;66.19;74484.25;5017935;28;19920;-67
2022/08/03 11:45:58;;;;;;;;;;;;;;;-142.75;65.37;74525.56;5035643;28;19920;-67
2022/08/03 11:48:25;;;;;;;;;;;;;;;-142.75;68.04;74533.44;5035277;28;19925;-67
2022/08/03 11:50:51;;;;;;;;;;;;;;;-142.75;67.76;74507.88;5018005;28;19949;-67
2022/08/03 11:53:17;;;;;;;;;;;;;;;-142.75;67.53;74509.81;5056470;22;20030;-65
2022/08/03 11:55:45;;;;;;;;;;;;;;;-142.75;65.53;74500.00;5034291;28;19917;-65
2022/08/03 11:58:14;;;;;;;;;;;;;;;-142.75;66.39;74484.25;5035064;28;19945;-65
2022/08/03 12:00:39;;;;;;;;;;;;;;;-142.75;66.20;74444.91;5035562;28;20382;-65
2022/08/03 12:03:06;;;;;;;;;;;;;;;-142.75;64.35;74425.22;5035454;28;19920;-64
2022/08/03 12:05:35;;;;;;;;;;;;;;;-142.75;65.18;74437.03;5035483;28;19975;-64
2022/08/03 12:08:00;;;;;;;;;;;;;;;-142.75;62.99;74500.00;5035035;28;20020;-63
2022/08/03 12:10:26;;;;;;;;;;;;;;;-142.75;65.21;74492.13;5035326;28;19955;-62
2022/08/03 12:12:58;;;;;;;;;;;;;;;-142.75;66.59;74468.50;5035038;28;20383;-62
2022/08/03 12:15:24;;;;;;;;;;;;;;;-142.75;64.23;74433.09;5035306;28;19917;-63
2022/08/03 12:17:49;;;;;;;;;;;;;;;-142.75;62.80;74429.16;5034862;28;20374;-63
2022/08/03 12:20:20;;;;;;;;;;;;;;;-142.75;63.81;74417.34;5017387;28;19959;-63
2022/08/03 12:22:45;;;;;;;;;;;;;;;-142.75;63.71;74472.44;5035146;28;19913;-63
2022/08/03 12:25:18;;;;;;;;;;;;;;;-142.75;66.11;74448.84;5035263;28;19913;-63
2022/08/03 12:27:44;;;;;;;;;;;;;;;-142.75;63.70;74490.16;5034846;28;19921;-63
2022/08/03 12:30:09;;;;;;;;;;;;;;;-142.75;65.08;74435.06;5035119;28;19920;-63